createdAt,value
2023-03-25T00:01:49.410Z,1.52
2023-03-25T00:06:51.050Z,1.95
2023-03-25T00:11:53.310Z,1.70
2023-03-25T00:16:54.905Z,1.83
2023-03-25T00:21:56.584Z,1.52
2023-03-25T00:26:58.192Z,1.60
2023-03-25T00:31:59.766Z,2.10
2023-03-25T00:37:04.949Z,1.88
2023-03-25T00:42:06.502Z,1.58
2023-03-25T00:47:08.120Z,1.55
2023-03-25T00:52:09.824Z,1.70
2023-03-25T00:57:12.044Z,1.63
2023-03-25T01:02:13.881Z,1.60
2023-03-25T01:07:17.263Z,1.58
2023-03-25T01:12:19.778Z,1.85
2023-03-25T01:17:21.630Z,1.98
2023-03-25T01:22:23.173Z,1.52
2023-03-25T01:27:24.805Z,2.10
2023-03-25T01:32:26.611Z,1.75
2023-03-25T01:37:29.612Z,1.92
2023-03-25T01:42:31.553Z,1.83
2023-03-25T01:47:33.613Z,2.10
2023-03-25T01:52:35.489Z,2.03
2023-03-25T01:57:41.756Z,1.83
2023-03-25T02:02:43.704Z,2.10
2023-03-25T02:07:48.015Z,2.05
2023-03-25T02:12:49.990Z,1.60
2023-03-25T02:18:16.200Z,1.83
2023-03-25T02:23:29.998Z,1.75
2023-03-25T02:28:48.822Z,2.00
2023-03-25T02:34:08.829Z,1.55
2023-03-25T02:39:29.313Z,1.85
2023-03-25T02:44:41.358Z,1.60
2023-03-25T02:49:50.498Z,1.73
2023-03-25T02:54:57.854Z,1.70
2023-03-25T02:59:59.954Z,2.08
2023-03-25T03:05:21.447Z,1.70
2023-03-25T03:10:26.862Z,1.30
2023-03-25T03:15:38.622Z,1.58
2023-03-25T03:21:10.151Z,1.40
2023-03-25T03:26:28.431Z,1.38
2023-03-25T03:31:48.599Z,1.63
2023-03-25T03:37:02.831Z,1.50
2023-03-25T03:42:32.487Z,1.38
2023-03-25T03:47:40.927Z,1.60
2023-03-25T03:52:47.130Z,1.58
2023-03-25T03:57:52.953Z,1.50
2023-03-25T04:03:28.405Z,1.60
2023-03-25T04:08:34.430Z,1.00
2023-03-25T04:13:39.714Z,1.38
2023-03-25T04:18:43.456Z,1.00
2023-03-25T04:23:46.083Z,1.10
2023-03-25T04:28:47.637Z,1.13
2023-03-25T04:33:50.634Z,1.30
2023-03-25T04:38:53.188Z,1.10
2023-03-25T04:43:54.891Z,1.27
2023-03-25T04:48:57.085Z,1.10
2023-03-25T04:53:59.262Z,1.25
2023-03-25T04:59:00.863Z,1.60
2023-03-25T05:04:07.091Z,1.73
2023-03-25T05:09:11.483Z,1.05
2023-03-25T05:14:15.499Z,1.35
2023-03-25T05:19:18.968Z,0.82
2023-03-25T05:24:20.690Z,0.80
2023-03-25T05:29:22.694Z,0.57
2023-03-25T05:34:25.630Z,0.70
2023-03-25T05:39:27.344Z,0.70
2023-03-25T05:44:28.959Z,0.82
2023-03-25T05:49:30.713Z,0.60
2023-03-25T05:54:32.299Z,0.60
2023-03-25T05:59:34.199Z,0.60
2023-03-25T06:04:41.176Z,0.60
2023-03-25T06:09:48.819Z,0.57
2023-03-25T06:14:54.240Z,0.60
2023-03-25T06:19:56.113Z,0.90
2023-03-25T06:24:57.753Z,0.57
2023-03-25T06:29:59.536Z,0.90
2023-03-25T06:35:01.183Z,0.55
2023-03-25T06:40:03.181Z,0.65
2023-03-25T06:45:06.626Z,0.68
2023-03-25T06:50:18.385Z,0.70
2023-03-25T06:55:20.284Z,0.90
2023-03-25T07:00:24.107Z,1.00
2023-03-25T07:05:26.028Z,0.80
2023-03-25T07:10:27.623Z,1.20
2023-03-25T07:15:29.242Z,0.80
2023-03-25T07:20:30.923Z,1.00
2023-03-25T07:25:32.560Z,1.30
2023-03-25T07:30:34.150Z,0.90
2023-03-25T07:35:36.143Z,1.17
2023-03-25T07:40:37.903Z,0.93
2023-03-25T07:45:43.926Z,0.90
2023-03-25T07:50:46.283Z,1.00
2023-03-25T07:55:50.823Z,1.20
2023-03-25T08:00:52.565Z,1.00
2023-03-25T08:05:54.505Z,1.05
2023-03-25T08:10:56.649Z,0.70
2023-03-25T08:15:58.309Z,1.20
2023-03-25T08:20:59.935Z,0.80
2023-03-25T08:26:02.889Z,1.10
2023-03-25T08:31:08.592Z,0.90
2023-03-25T08:36:14.059Z,1.02
2023-03-25T08:41:16.525Z,1.60
2023-03-25T08:46:18.199Z,1.10
2023-03-25T08:51:19.873Z,1.05
2023-03-25T08:56:21.531Z,1.15
2023-03-25T09:01:24.400Z,0.80
2023-03-25T09:06:26.127Z,0.80
2023-03-25T09:11:36.522Z,0.80
2023-03-25T09:16:38.627Z,0.77
2023-03-25T09:21:40.204Z,1.13
2023-03-25T09:26:41.881Z,0.90
2023-03-25T09:31:43.575Z,0.90
2023-03-25T09:36:48.093Z,0.90
2023-03-25T09:42:29.846Z,0.70
2023-03-25T09:47:34.108Z,0.73
2023-03-25T09:52:50.568Z,1.02
2023-03-25T09:57:57.907Z,0.90
2023-03-25T10:03:17.878Z,0.90
2023-03-25T10:08:39.639Z,1.10
2023-03-25T10:13:48.845Z,0.98
2023-03-25T10:19:03.633Z,0.90
2023-03-25T10:24:37.494Z,0.93
2023-03-25T10:29:43.728Z,1.13
2023-03-25T10:34:50.490Z,1.20
2023-03-25T10:39:52.237Z,1.10
2023-03-25T10:44:54.039Z,1.10
2023-03-25T10:49:56.138Z,1.10
2023-03-25T10:54:58.559Z,0.90
2023-03-25T11:00:18.243Z,0.95
2023-03-25T11:05:22.597Z,0.80
2023-03-25T11:10:24.238Z,0.82
2023-03-25T11:15:30.848Z,0.90
2023-03-25T11:20:39.227Z,2.88
2023-03-25T11:25:42.112Z,0.77
2023-03-25T11:31:06.614Z,1.10
2023-03-25T11:36:23.048Z,1.05
2023-03-25T11:41:28.396Z,0.75
2023-03-25T11:46:30.749Z,0.90
2023-03-25T11:51:33.810Z,0.70
2023-03-25T11:56:40.554Z,0.68
2023-03-25T12:01:45.828Z,0.77
2023-03-25T12:06:59.360Z,0.68
2023-03-25T12:12:23.059Z,0.80
2023-03-25T12:17:37.127Z,0.90
2023-03-25T12:22:57.476Z,0.60
2023-03-25T12:28:29.191Z,0.80
2023-03-25T12:33:38.120Z,0.65
2023-03-25T12:38:58.761Z,0.70
2023-03-25T12:44:29.481Z,0.70
2023-03-25T12:49:49.546Z,0.80
2023-03-25T12:55:09.469Z,0.60
2023-03-25T13:00:23.305Z,0.50
2023-03-25T13:05:31.221Z,0.70
2023-03-25T13:10:35.576Z,0.70
2023-03-25T13:15:58.538Z,0.70
2023-03-25T13:21:20.646Z,0.63
2023-03-25T13:26:29.393Z,0.68
2023-03-25T13:31:36.738Z,0.60
2023-03-25T13:36:42.703Z,0.82
2023-03-25T13:41:48.071Z,0.80
2023-03-25T13:46:56.799Z,1.27
2023-03-25T13:51:58.601Z,0.73
2023-03-25T13:57:37.330Z,0.80
2023-03-25T14:02:44.670Z,0.93
2023-03-25T14:08:23.773Z,0.80
2023-03-25T14:13:32.619Z,0.98
2023-03-25T14:18:44.645Z,1.17
2023-03-25T14:23:46.286Z,1.05
2023-03-25T14:28:48.101Z,1.20
2023-03-25T14:34:04.522Z,1.15
2023-03-25T14:39:32.025Z,1.05
2023-03-25T14:44:56.859Z,1.10
2023-03-25T14:50:20.625Z,0.70
2023-03-25T14:55:34.185Z,0.73
2023-03-25T15:00:41.383Z,0.60
2023-03-25T15:05:43.720Z,0.45
2023-03-25T15:10:48.925Z,0.68
2023-03-25T15:15:52.205Z,0.68
2023-03-25T15:20:53.973Z,0.82
2023-03-25T15:25:56.849Z,0.90
2023-03-25T15:31:16.234Z,0.73
2023-03-25T15:36:31.089Z,0.80
2023-03-25T15:41:54.373Z,0.80
2023-03-25T15:47:03.988Z,0.82
2023-03-25T15:52:42.694Z,0.88
2023-03-25T15:57:49.242Z,0.80
2023-03-25T16:03:03.596Z,0.68
2023-03-25T16:08:14.269Z,1.20
2023-03-25T16:13:23.835Z,0.70
2023-03-25T16:18:26.139Z,0.98
2023-03-25T16:23:30.102Z,0.90
2023-03-25T16:28:34.597Z,0.98
2023-03-25T16:33:39.479Z,0.93
2023-03-25T16:38:41.320Z,0.80
2023-03-25T16:43:43.327Z,0.85
2023-03-25T16:48:51.208Z,1.05
2023-03-25T16:53:55.803Z,1.00
2023-03-25T16:59:07.683Z,1.00
2023-03-25T17:04:13.658Z,0.90
2023-03-25T17:09:18.280Z,1.00
2023-03-25T17:14:22.187Z,1.10
2023-03-25T17:19:26.503Z,1.23
2023-03-25T17:24:28.400Z,1.30
2023-03-25T17:29:29.956Z,1.25
2023-03-25T17:34:32.112Z,1.90
2023-03-25T17:39:34.270Z,1.70
2023-03-25T17:44:41.319Z,1.70
2023-03-25T17:49:43.073Z,1.40
2023-03-25T17:54:44.677Z,1.60
2023-03-25T17:59:47.195Z,1.30
2023-03-25T18:04:48.806Z,1.40
2023-03-25T18:09:50.422Z,1.60
2023-03-25T18:14:52.063Z,1.45
2023-03-25T18:19:53.659Z,1.48
2023-03-25T18:24:55.226Z,1.30
2023-03-25T18:29:57.190Z,1.60
2023-03-25T18:34:58.785Z,1.30
2023-03-25T18:40:00.747Z,1.58
2023-03-25T18:45:02.404Z,1.52
2023-03-25T18:50:17.971Z,1.50
2023-03-25T18:55:19.572Z,1.30
2023-03-25T19:00:25.335Z,1.50
2023-03-25T19:05:27.597Z,1.67
2023-03-25T19:10:31.524Z,1.48
2023-03-25T19:15:33.106Z,1.08
2023-03-25T19:20:36.145Z,1.25
2023-03-25T19:25:37.805Z,1.42
2023-03-25T19:30:39.457Z,1.35
2023-03-25T19:35:41.819Z,1.30
2023-03-25T19:40:44.257Z,1.40
2023-03-25T19:45:46.065Z,1.30
2023-03-25T19:50:47.699Z,1.58
2023-03-25T19:55:49.356Z,1.20
2023-03-25T20:00:51.545Z,0.82
2023-03-25T20:05:57.328Z,0.77
2023-03-25T20:10:59.074Z,1.10
2023-03-25T20:16:00.888Z,0.70
2023-03-25T20:21:02.513Z,0.70
2023-03-25T20:26:04.566Z,0.80
2023-03-25T20:31:20.516Z,1.02
2023-03-25T20:36:22.167Z,0.80
2023-03-25T20:41:24.013Z,1.13
2023-03-25T20:46:28.724Z,1.25
2023-03-25T20:51:30.442Z,0.82
2023-03-25T20:56:33.226Z,0.93
2023-03-25T21:01:35.226Z,0.88
2023-03-25T21:06:37.884Z,1.20
2023-03-25T21:11:40.165Z,1.05
2023-03-25T21:16:42.398Z,1.13
2023-03-25T21:21:44.060Z,1.10
2023-03-25T21:26:45.690Z,0.95
2023-03-25T21:31:47.716Z,1.23
2023-03-25T21:36:49.501Z,1.08
2023-03-25T21:41:51.247Z,1.10
2023-03-25T21:46:54.268Z,1.23
2023-03-25T21:51:56.946Z,1.38
2023-03-25T21:56:58.663Z,1.83
2023-03-25T22:02:00.262Z,1.85
2023-03-25T22:07:01.949Z,1.48
2023-03-25T22:12:03.801Z,1.40
2023-03-25T22:17:05.618Z,1.50
2023-03-25T22:22:11.015Z,1.58
2023-03-25T22:27:12.859Z,1.50
2023-03-25T22:32:14.423Z,1.20
2023-03-25T22:37:16.381Z,1.40
2023-03-25T22:42:17.973Z,1.40
2023-03-25T22:47:19.860Z,1.45
2023-03-25T22:52:21.766Z,1.33
2023-03-25T22:57:23.415Z,1.27
2023-03-25T23:02:25.143Z,1.40
2023-03-25T23:07:26.785Z,1.13
2023-03-25T23:12:28.400Z,1.25
2023-03-25T23:17:30.682Z,1.00
2023-03-25T23:22:32.755Z,1.17
2023-03-25T23:27:34.367Z,1.02
2023-03-25T23:32:36.039Z,1.65
2023-03-25T23:37:37.725Z,1.35
2023-03-25T23:42:39.272Z,1.10
2023-03-25T23:47:41.267Z,1.20
2023-03-25T23:52:42.956Z,1.60
2023-03-25T23:57:44.545Z,1.35
